sensor_id;sensor_type;location;lat;lon;timestamp;pressure;altitude;pressure_sealevel;temperature;humidity
19594;BME280;9944;48.240;16.478;2023-04-06T00:02:18;100196.03;;;1.73;49.66
19594;BME280;9944;48.240;16.478;2023-04-06T00:06:21;100201.06;;;1.69;49.38
19594;BME280;9944;48.240;16.478;2023-04-06T00:10:24;100195.66;;;1.64;49.74
19594;BME280;9944;48.240;16.478;2023-04-06T00:14:29;100186.91;;;1.62;49.96
19594;BME280;9944;48.240;16.478;2023-04-06T00:18:32;100181.59;;;1.59;49.91
19594;BME280;9944;48.240;16.478;2023-04-06T00:22:36;100192.84;;;1.58;50.06
19594;BME280;9944;48.240;16.478;2023-04-06T00:26:39;100192.66;;;1.53;50.10
19594;BME280;9944;48.240;16.478;2023-04-06T00:30:44;100190.84;;;1.51;50.00
19594;BME280;9944;48.240;16.478;2023-04-06T00:34:47;100192.59;;;1.52;50.00
19594;BME280;9944;48.240;16.478;2023-04-06T00:38:50;100183.72;;;1.47;50.15
19594;BME280;9944;48.240;16.478;2023-04-06T00:42:54;100183.66;;;1.45;50.33
19594;BME280;9944;48.240;16.478;2023-04-06T00:46:59;100181.13;;;1.47;50.43
19594;BME280;9944;48.240;16.478;2023-04-06T00:51:02;100176.81;;;1.47;50.54
19594;BME280;9944;48.240;16.478;2023-04-06T00:55:07;100178.59;;;1.48;50.46
19594;BME280;9944;48.240;16.478;2023-04-06T00:59:15;100174.16;;;1.46;50.45
19594;BME280;9944;48.240;16.478;2023-04-06T01:03:20;100172.25;;;1.42;50.71
19594;BME280;9944;48.240;16.478;2023-04-06T01:07:23;100173.16;;;1.42;50.65
19594;BME280;9944;48.240;16.478;2023-04-06T01:11:39;100175.69;;;1.41;50.68
19594;BME280;9944;48.240;16.478;2023-04-06T01:15:46;100172.84;;;1.34;51.21
19594;BME280;9944;48.240;16.478;2023-04-06T01:19:57;100170.00;;;1.28;50.72
19594;BME280;9944;48.240;16.478;2023-04-06T01:24:07;100165.56;;;1.26;50.77
19594;BME280;9944;48.240;16.478;2023-04-06T01:28:31;100165.38;;;1.21;50.81
19594;BME280;9944;48.240;16.478;2023-04-06T01:32:43;100161.00;;;1.20;50.86
19594;BME280;9944;48.240;16.478;2023-04-06T01:36:49;100159.28;;;1.20;50.77
19594;BME280;9944;48.240;16.478;2023-04-06T01:41:00;100154.69;;;1.13;50.85
19594;BME280;9944;48.240;16.478;2023-04-06T01:45:10;100152.94;;;1.14;50.82
19594;BME280;9944;48.240;16.478;2023-04-06T01:49:15;100149.34;;;1.10;50.63
19594;BME280;9944;48.240;16.478;2023-04-06T01:53:22;100153.41;;;1.04;50.91
19594;BME280;9944;48.240;16.478;2023-04-06T01:57:31;100160.38;;;1.05;51.14
19594;BME280;9944;48.240;16.478;2023-04-06T02:01:44;100156.84;;;1.03;50.86
19594;BME280;9944;48.240;16.478;2023-04-06T02:05:48;100155.94;;;1.02;50.95
19594;BME280;9944;48.240;16.478;2023-04-06T02:10:11;100156.00;;;1.04;50.77
19594;BME280;9944;48.240;16.478;2023-04-06T02:14:16;100156.00;;;1.04;50.90
19594;BME280;9944;48.240;16.478;2023-04-06T02:18:25;100153.41;;;1.04;51.03
19594;BME280;9944;48.240;16.478;2023-04-06T02:22:29;100149.88;;;1.01;50.92
19594;BME280;9944;48.240;16.478;2023-04-06T02:26:33;100152.41;;;1.00;51.05
19594;BME280;9944;48.240;16.478;2023-04-06T02:30:39;100141.00;;;0.96;51.05
19594;BME280;9944;48.240;16.478;2023-04-06T02:34:42;100142.50;;;0.91;50.97
19594;BME280;9944;48.240;16.478;2023-04-06T02:38:45;100144.03;;;0.86;51.09
19594;BME280;9944;48.240;16.478;2023-04-06T02:42:48;100142.16;;;0.82;51.23
19594;BME280;9944;48.240;16.478;2023-04-06T02:47:01;100152.41;;;0.79;51.25
19594;BME280;9944;48.240;16.478;2023-04-06T02:51:05;100136.59;;;0.73;51.25
19594;BME280;9944;48.240;16.478;2023-04-06T02:55:10;100148.59;;;0.71;51.33
19594;BME280;9944;48.240;16.478;2023-04-06T02:59:13;100143.16;;;0.64;51.35
19594;BME280;9944;48.240;16.478;2023-04-06T03:03:25;100141.13;;;0.57;51.41
19594;BME280;9944;48.240;16.478;2023-04-06T03:07:30;100146.13;;;0.53;51.58
19594;BME280;9944;48.240;16.478;2023-04-06T03:11:33;100144.31;;;0.50;51.51
19594;BME280;9944;48.240;16.478;2023-04-06T03:15:36;100151.88;;;0.45;51.62
19594;BME280;9944;48.240;16.478;2023-04-06T03:19:49;100148.28;;;0.42;51.86
19594;BME280;9944;48.240;16.478;2023-04-06T03:23:53;100152.53;;;0.40;51.90
19594;BME280;9944;48.240;16.478;2023-04-06T03:27:56;100152.38;;;0.37;51.79
19594;BME280;9944;48.240;16.478;2023-04-06T03:32:00;100163.50;;;0.34;52.17
19594;BME280;9944;48.240;16.478;2023-04-06T03:36:14;100156.50;;;0.32;52.10
19594;BME280;9944;48.240;16.478;2023-04-06T03:40:18;100160.81;;;0.31;52.22
19594;BME280;9944;48.240;16.478;2023-04-06T03:44:22;100159.09;;;0.32;52.36
19594;BME280;9944;48.240;16.478;2023-04-06T03:48:25;100159.91;;;0.31;52.18
19594;BME280;9944;48.240;16.478;2023-04-06T03:52:30;100163.47;;;0.33;52.33
19594;BME280;9944;48.240;16.478;2023-04-06T03:56:33;100164.41;;;0.35;52.18
19594;BME280;9944;48.240;16.478;2023-04-06T04:00:37;100172.28;;;0.36;52.19
19594;BME280;9944;48.240;16.478;2023-04-06T04:04:41;100178.22;;;0.34;52.24
19594;BME280;9944;48.240;16.478;2023-04-06T04:08:46;100170.28;;;0.31;52.36
19594;BME280;9944;48.240;16.478;2023-04-06T04:12:49;100165.78;;;0.26;52.47
19594;BME280;9944;48.240;16.478;2023-04-06T04:16:53;100169.19;;;0.25;52.57
19594;BME280;9944;48.240;16.478;2023-04-06T04:20:56;100170.84;;;0.23;52.46
19594;BME280;9944;48.240;16.478;2023-04-06T04:25:01;100172.47;;;0.21;52.41
19594;BME280;9944;48.240;16.478;2023-04-06T04:29:06;100174.22;;;0.21;52.65
19594;BME280;9944;48.240;16.478;2023-04-06T04:33:12;100175.88;;;0.20;52.63
19594;BME280;9944;48.240;16.478;2023-04-06T04:37:16;100187.19;;;0.21;52.78
19594;BME280;9944;48.240;16.478;2023-04-06T04:41:27;100186.16;;;0.17;52.97
19594;BME280;9944;48.240;16.478;2023-04-06T04:45:31;100179.19;;;0.16;53.10
19594;BME280;9944;48.240;16.478;2023-04-06T04:49:44;100186.28;;;0.20;53.11
19594;BME280;9944;48.240;16.478;2023-04-06T04:53:55;100183.56;;;0.17;53.41
19594;BME280;9944;48.240;16.478;2023-04-06T04:58:04;100182.59;;;0.15;53.25
19594;BME280;9944;48.240;16.478;2023-04-06T05:02:24;100173.84;;;0.13;53.38
19594;BME280;9944;48.240;16.478;2023-04-06T05:06:47;100179.13;;;0.15;53.58
19594;BME280;9944;48.240;16.478;2023-04-06T05:10:51;100174.00;;;0.16;53.63
19594;BME280;9944;48.240;16.478;2023-04-06T05:14:57;100170.69;;;0.20;53.52
19594;BME280;9944;48.240;16.478;2023-04-06T05:19:01;100180.19;;;0.20;53.87
19594;BME280;9944;48.240;16.478;2023-04-06T05:23:13;100179.44;;;0.42;54.25
19594;BME280;9944;48.240;16.478;2023-04-06T05:27:17;100185.50;;;0.42;53.83
19594;BME280;9944;48.240;16.478;2023-04-06T05:31:23;100177.72;;;0.42;53.66
19594;BME280;9944;48.240;16.478;2023-04-06T05:35:27;100179.50;;;0.43;53.58
19594;BME280;9944;48.240;16.478;2023-04-06T05:39:35;100175.19;;;0.44;53.81
19594;BME280;9944;48.240;16.478;2023-04-06T05:43:38;100179.69;;;0.48;53.83
19594;BME280;9944;48.240;16.478;2023-04-06T05:47:43;100185.16;;;0.54;54.39
19594;BME280;9944;48.240;16.478;2023-04-06T05:51:56;100190.06;;;0.68;53.95
19594;BME280;9944;48.240;16.478;2023-04-06T05:56:00;100188.56;;;0.73;54.08
19594;BME280;9944;48.240;16.478;2023-04-06T06:00:05;100191.31;;;0.77;53.97
19594;BME280;9944;48.240;16.478;2023-04-06T06:04:19;100194.13;;;0.82;53.84
19594;BME280;9944;48.240;16.478;2023-04-06T06:08:26;100192.53;;;0.86;53.90
19594;BME280;9944;48.240;16.478;2023-04-06T06:12:30;100197.09;;;0.91;54.02
19594;BME280;9944;48.240;16.478;2023-04-06T06:16:35;100191.22;;;0.95;54.13
19594;BME280;9944;48.240;16.478;2023-04-06T06:20:42;100190.06;;;1.10;53.85
19594;BME280;9944;48.240;16.478;2023-04-06T06:24:45;100190.44;;;1.19;53.82
19594;BME280;9944;48.240;16.478;2023-04-06T06:28:51;100197.91;;;1.32;53.73
19594;BME280;9944;48.240;16.478;2023-04-06T06:32:55;100188.91;;;1.47;53.76
19594;BME280;9944;48.240;16.478;2023-04-06T06:37:01;100190.13;;;1.55;53.51
19594;BME280;9944;48.240;16.478;2023-04-06T06:41:05;100184.56;;;1.68;53.47
19594;BME280;9944;48.240;16.478;2023-04-06T06:45:10;100186.44;;;1.72;53.45
19594;BME280;9944;48.240;16.478;2023-04-06T06:49:14;100180.75;;;1.83;53.44
19594;BME280;9944;48.240;16.478;2023-04-06T06:53:19;100184.63;;;1.92;53.57
19594;BME280;9944;48.240;16.478;2023-04-06T06:57:23;100181.66;;;2.07;53.73
19594;BME280;9944;48.240;16.478;2023-04-06T07:01:27;100181.28;;;2.21;53.54
19594;BME280;9944;48.240;16.478;2023-04-06T07:05:31;100177.63;;;2.40;53.70
19594;BME280;9944;48.240;16.478;2023-04-06T07:09:37;100179.22;;;2.60;53.24
19594;BME280;9944;48.240;16.478;2023-04-06T07:13:41;100176.97;;;2.71;53.43
19594;BME280;9944;48.240;16.478;2023-04-06T07:17:45;100177.03;;;3.00;53.80
19594;BME280;9944;48.240;16.478;2023-04-06T07:21:48;100180.66;;;3.31;53.33
19594;BME280;9944;48.240;16.478;2023-04-06T07:25:53;100169.94;;;3.49;52.78
19594;BME280;9944;48.240;16.478;2023-04-06T07:29:57;100171.06;;;3.58;52.54
19594;BME280;9944;48.240;16.478;2023-04-06T07:34:01;100169.50;;;3.63;51.65
19594;BME280;9944;48.240;16.478;2023-04-06T07:38:04;100171.53;;;3.74;51.57
19594;BME280;9944;48.240;16.478;2023-04-06T07:42:10;100163.72;;;3.74;51.49
19594;BME280;9944;48.240;16.478;2023-04-06T07:46:14;100176.97;;;3.80;51.80
19594;BME280;9944;48.240;16.478;2023-04-06T07:50:17;100171.38;;;3.96;51.46
19594;BME280;9944;48.240;16.478;2023-04-06T07:54:22;100162.91;;;4.05;51.40
19594;BME280;9944;48.240;16.478;2023-04-06T07:58:27;100169.34;;;4.16;51.68
19594;BME280;9944;48.240;16.478;2023-04-06T08:02:31;100167.75;;;4.23;50.38
19594;BME280;9944;48.240;16.478;2023-04-06T08:06:34;100159.72;;;4.15;50.50
19594;BME280;9944;48.240;16.478;2023-04-06T08:10:38;100159.72;;;4.15;50.79
19594;BME280;9944;48.240;16.478;2023-04-06T08:14:43;100161.75;;;4.26;51.02
19594;BME280;9944;48.240;16.478;2023-04-06T08:18:46;100152.63;;;4.43;50.91
19594;BME280;9944;48.240;16.478;2023-04-06T08:22:49;100157.91;;;4.45;50.94
19594;BME280;9944;48.240;16.478;2023-04-06T08:26:54;100152.81;;;4.51;51.02
19594;BME280;9944;48.240;16.478;2023-04-06T08:30:59;100151.13;;;4.51;50.12
19594;BME280;9944;48.240;16.478;2023-04-06T08:35:02;100158.00;;;4.48;50.25
19594;BME280;9944;48.240;16.478;2023-04-06T08:39:05;100157.41;;;4.59;50.17
19594;BME280;9944;48.240;16.478;2023-04-06T08:43:11;100147.13;;;4.66;50.55
19594;BME280;9944;48.240;16.478;2023-04-06T08:47:17;100144.69;;;4.73;50.00
19594;BME280;9944;48.240;16.478;2023-04-06T08:51:23;100131.94;;;4.86;50.44
19594;BME280;9944;48.240;16.478;2023-04-06T08:55:27;100140.31;;;5.07;50.27
19594;BME280;9944;48.240;16.478;2023-04-06T08:59:31;100133.00;;;5.30;49.94
19594;BME280;9944;48.240;16.478;2023-04-06T09:03:37;100118.31;;;5.37;49.49
19594;BME280;9944;48.240;16.478;2023-04-06T09:07:41;100121.19;;;5.49;49.90
19594;BME280;9944;48.240;16.478;2023-04-06T09:11:46;100107.53;;;5.63;49.34
19594;BME280;9944;48.240;16.478;2023-04-06T09:15:58;100103.19;;;5.65;47.96
19594;BME280;9944;48.240;16.478;2023-04-06T09:20:04;100105.06;;;5.70;47.18
19594;BME280;9944;48.240;16.478;2023-04-06T09:24:08;100093.16;;;5.85;47.32
19594;BME280;9944;48.240;16.478;2023-04-06T09:28:12;100091.50;;;5.91;46.78
19594;BME280;9944;48.240;16.478;2023-04-06T09:32:16;100088.28;;;6.05;45.97
19594;BME280;9944;48.240;16.478;2023-04-06T09:36:29;100074.56;;;6.18;46.09
19594;BME280;9944;48.240;16.478;2023-04-06T09:40:33;100067.53;;;6.17;44.95
19594;BME280;9944;48.240;16.478;2023-04-06T09:44:36;100068.53;;;6.24;45.76
19594;BME280;9944;48.240;16.478;2023-04-06T09:48:39;100057.69;;;6.50;45.44
19594;BME280;9944;48.240;16.478;2023-04-06T09:52:47;100055.13;;;6.56;45.27
19594;BME280;9944;48.240;16.478;2023-04-06T09:56:55;100048.19;;;6.58;45.21
19594;BME280;9944;48.240;16.478;2023-04-06T10:01:05;100040.38;;;6.62;44.29
19594;BME280;9944;48.240;16.478;2023-04-06T10:05:27;100041.16;;;6.55;44.24
19594;BME280;9944;48.240;16.478;2023-04-06T10:09:37;100043.56;;;6.43;44.43
19594;BME280;9944;48.240;16.478;2023-04-06T10:13:40;100036.66;;;6.48;43.98
19594;BME280;9944;48.240;16.478;2023-04-06T10:17:44;100029.81;;;6.56;42.93
19594;BME280;9944;48.240;16.478;2023-04-06T10:21:51;100016.06;;;6.73;43.15
19594;BME280;9944;48.240;16.478;2023-04-06T10:26:00;100016.13;;;6.76;41.92
19594;BME280;9944;48.240;16.478;2023-04-06T10:30:05;100012.59;;;6.74;41.40
19594;BME280;9944;48.240;16.478;2023-04-06T10:34:08;100001.34;;;6.81;41.25
19594;BME280;9944;48.240;16.478;2023-04-06T10:38:12;100005.72;;;6.82;40.32
19594;BME280;9944;48.240;16.478;2023-04-06T10:42:17;100003.09;;;6.80;40.39
19594;BME280;9944;48.240;16.478;2023-04-06T10:46:24;99999.78;;;6.95;40.27
19594;BME280;9944;48.240;16.478;2023-04-06T10:50:29;99993.84;;;7.09;40.64
19594;BME280;9944;48.240;16.478;2023-04-06T10:54:32;100001.88;;;7.21;40.89
19594;BME280;9944;48.240;16.478;2023-04-06T10:58:38;99987.22;;;7.38;39.45
19594;BME280;9944;48.240;16.478;2023-04-06T11:02:41;99994.31;;;7.46;39.41
19594;BME280;9944;48.240;16.478;2023-04-06T11:06:46;99974.25;;;7.52;39.84
19594;BME280;9944;48.240;16.478;2023-04-06T11:10:50;99966.44;;;7.57;39.37
19594;BME280;9944;48.240;16.478;2023-04-06T11:14:56;99975.13;;;7.51;37.34
19594;BME280;9944;48.240;16.478;2023-04-06T11:19:04;99979.50;;;7.51;38.32
19594;BME280;9944;48.240;16.478;2023-04-06T11:23:08;99960.44;;;7.69;37.46
19594;BME280;9944;48.240;16.478;2023-04-06T11:27:12;99953.66;;;7.94;37.67
19594;BME280;9944;48.240;16.478;2023-04-06T11:31:18;99942.31;;;7.95;36.85
19594;BME280;9944;48.240;16.478;2023-04-06T11:35:22;99951.88;;;7.88;37.69
19594;BME280;9944;48.240;16.478;2023-04-06T11:39:28;99934.56;;;8.13;38.48
19594;BME280;9944;48.240;16.478;2023-04-06T11:43:32;99929.44;;;8.30;36.92
19594;BME280;9944;48.240;16.478;2023-04-06T11:47:37;99924.97;;;8.18;36.28
19594;BME280;9944;48.240;16.478;2023-04-06T11:51:40;99910.06;;;8.21;37.46
19594;BME280;9944;48.240;16.478;2023-04-06T11:55:43;99914.59;;;8.34;37.88
19594;BME280;9944;48.240;16.478;2023-04-06T11:59:49;99920.00;;;8.52;37.93
19594;BME280;9944;48.240;16.478;2023-04-06T12:03:54;99901.69;;;8.74;37.74
19594;BME280;9944;48.240;16.478;2023-04-06T12:07:57;99895.63;;;8.95;37.32
19594;BME280;9944;48.240;16.478;2023-04-06T12:12:04;99872.88;;;9.08;36.38
19594;BME280;9944;48.240;16.478;2023-04-06T12:16:07;99899.19;;;9.05;35.96
19594;BME280;9944;48.240;16.478;2023-04-06T12:20:12;99886.84;;;8.91;36.00
19594;BME280;9944;48.240;16.478;2023-04-06T12:24:28;99883.31;;;8.83;35.58
19594;BME280;9944;48.240;16.478;2023-04-06T12:28:31;99867.44;;;8.71;36.49
19594;BME280;9944;48.240;16.478;2023-04-06T12:32:34;99871.88;;;8.73;35.78
19594;BME280;9944;48.240;16.478;2023-04-06T12:36:39;99871.03;;;8.82;36.55
19594;BME280;9944;48.240;16.478;2023-04-06T12:40:42;99853.47;;;8.81;36.28
19594;BME280;9944;48.240;16.478;2023-04-06T12:44:46;99858.66;;;8.66;35.97
19594;BME280;9944;48.240;16.478;2023-04-06T12:48:49;99867.41;;;8.55;35.73
19594;BME280;9944;48.240;16.478;2023-04-06T12:52:56;99848.06;;;8.53;35.60
19594;BME280;9944;48.240;16.478;2023-04-06T12:57:00;99848.06;;;8.50;36.07
19594;BME280;9944;48.240;16.478;2023-04-06T13:01:06;99857.72;;;8.54;36.82
19594;BME280;9944;48.240;16.478;2023-04-06T13:05:10;99853.41;;;8.63;36.47
19594;BME280;9944;48.240;16.478;2023-04-06T13:09:14;99855.19;;;8.70;36.61
19594;BME280;9944;48.240;16.478;2023-04-06T13:13:22;99842.94;;;8.81;36.69
19594;BME280;9944;48.240;16.478;2023-04-06T13:17:27;99842.09;;;8.87;36.36
19594;BME280;9944;48.240;16.478;2023-04-06T13:21:30;99833.34;;;8.92;35.42
19594;BME280;9944;48.240;16.478;2023-04-06T13:25:35;99828.94;;;8.88;35.53
19594;BME280;9944;48.240;16.478;2023-04-06T13:29:38;99821.03;;;8.84;35.20
19594;BME280;9944;48.240;16.478;2023-04-06T13:33:41;99820.13;;;8.86;36.64
19594;BME280;9944;48.240;16.478;2023-04-06T13:37:45;99821.91;;;8.93;35.92
19594;BME280;9944;48.240;16.478;2023-04-06T13:41:49;99821.06;;;8.88;36.48
19594;BME280;9944;48.240;16.478;2023-04-06T13:45:54;99816.66;;;8.97;35.82
19594;BME280;9944;48.240;16.478;2023-04-06T13:50:00;99807.03;;;9.02;36.41
19594;BME280;9944;48.240;16.478;2023-04-06T13:54:04;99808.81;;;9.10;36.26
19594;BME280;9944;48.240;16.478;2023-04-06T13:58:09;99801.78;;;9.05;35.95
19594;BME280;9944;48.240;16.478;2023-04-06T14:02:12;99816.69;;;9.00;35.75
19594;BME280;9944;48.240;16.478;2023-04-06T14:06:15;99804.34;;;8.89;35.28
19594;BME280;9944;48.240;16.478;2023-04-06T14:10:36;99800.00;;;8.88;36.17
19594;BME280;9944;48.240;16.478;2023-04-06T14:14:44;99811.41;;;8.90;35.84
19594;BME280;9944;48.240;16.478;2023-04-06T14:18:47;99799.13;;;8.92;35.79
19594;BME280;9944;48.240;16.478;2023-04-06T14:22:50;99799.13;;;8.96;35.81
19594;BME280;9944;48.240;16.478;2023-04-06T14:26:54;99802.59;;;8.91;36.06
19594;BME280;9944;48.240;16.478;2023-04-06T14:31:00;99811.41;;;8.90;36.23
19594;BME280;9944;48.240;16.478;2023-04-06T14:35:05;99807.88;;;8.88;36.09
19594;BME280;9944;48.240;16.478;2023-04-06T14:39:10;99800.81;;;8.81;36.03
19594;BME280;9944;48.240;16.478;2023-04-06T14:43:13;99814.03;;;8.89;36.17
19594;BME280;9944;48.240;16.478;2023-04-06T14:47:19;99812.25;;;8.88;35.67
19594;BME280;9944;48.240;16.478;2023-04-06T14:51:24;99806.97;;;8.86;36.30
19594;BME280;9944;48.240;16.478;2023-04-06T14:55:27;99802.59;;;8.84;36.24
19594;BME280;9944;48.240;16.478;2023-04-06T14:59:30;99806.09;;;8.83;35.51
19594;BME280;9944;48.240;16.478;2023-04-06T15:03:39;99803.47;;;8.87;35.93
19594;BME280;9944;48.240;16.478;2023-04-06T15:07:43;99805.25;;;8.87;35.43
19594;BME280;9944;48.240;16.478;2023-04-06T15:11:46;99809.59;;;8.86;35.03
19594;BME280;9944;48.240;16.478;2023-04-06T15:15:50;99797.31;;;8.82;34.76
19594;BME280;9944;48.240;16.478;2023-04-06T15:19:55;99803.44;;;8.80;35.70
19594;BME280;9944;48.240;16.478;2023-04-06T15:23:58;99804.34;;;8.82;35.59
19594;BME280;9944;48.240;16.478;2023-04-06T15:28:01;99809.59;;;8.85;34.90
19594;BME280;9944;48.240;16.478;2023-04-06T15:32:04;99799.97;;;8.90;35.75
19594;BME280;9944;48.240;16.478;2023-04-06T15:36:21;99807.03;;;8.94;35.16
19594;BME280;9944;48.240;16.478;2023-04-06T15:40:25;99809.63;;;8.89;35.30
19594;BME280;9944;48.240;16.478;2023-04-06T15:44:28;99807.84;;;8.84;35.72
19594;BME280;9944;48.240;16.478;2023-04-06T15:48:32;99813.13;;;8.82;35.07
19594;BME280;9944;48.240;16.478;2023-04-06T15:52:37;99817.47;;;8.74;35.41
19594;BME280;9944;48.240;16.478;2023-04-06T15:56:40;99818.34;;;8.76;35.46
19594;BME280;9944;48.240;16.478;2023-04-06T16:00:44;99807.81;;;8.73;36.05
19594;BME280;9944;48.240;16.478;2023-04-06T16:04:47;99816.59;;;8.72;36.31
19594;BME280;9944;48.240;16.478;2023-04-06T16:08:52;99813.94;;;8.70;36.33
19594;BME280;9944;48.240;16.478;2023-04-06T16:12:55;99816.56;;;8.69;35.78
19594;BME280;9944;48.240;16.478;2023-04-06T16:16:58;99820.06;;;8.63;35.55
19594;BME280;9944;48.240;16.478;2023-04-06T16:21:01;99819.16;;;8.58;35.82
19594;BME280;9944;48.240;16.478;2023-04-06T16:25:09;99820.00;;;8.52;35.67
19594;BME280;9944;48.240;16.478;2023-04-06T16:29:12;99822.59;;;8.46;35.63
19594;BME280;9944;48.240;16.478;2023-04-06T16:33:17;99816.44;;;8.41;35.43
19594;BME280;9944;48.240;16.478;2023-04-06T16:37:20;99809.41;;;8.37;36.08
19594;BME280;9944;48.240;16.478;2023-04-06T16:41:27;99823.41;;;8.36;36.20
19594;BME280;9944;48.240;16.478;2023-04-06T16:45:31;99823.38;;;8.30;36.22
19594;BME280;9944;48.240;16.478;2023-04-06T16:49:35;99822.47;;;8.26;36.30
19594;BME280;9944;48.240;16.478;2023-04-06T16:53:38;99827.72;;;8.25;36.13
19594;BME280;9944;48.240;16.478;2023-04-06T16:57:42;99830.31;;;8.22;37.08
19594;BME280;9944;48.240;16.478;2023-04-06T17:01:46;99833.81;;;8.17;37.70
19594;BME280;9944;48.240;16.478;2023-04-06T17:05:49;99831.16;;;8.16;37.12
19594;BME280;9944;48.240;16.478;2023-04-06T17:09:52;99829.38;;;8.13;36.88
19594;BME280;9944;48.240;16.478;2023-04-06T17:13:56;99839.91;;;8.10;36.95
19594;BME280;9944;48.240;16.478;2023-04-06T17:17:59;99829.38;;;8.09;37.04
19594;BME280;9944;48.240;16.478;2023-04-06T17:22:03;99832.84;;;8.05;37.77
19594;BME280;9944;48.240;16.478;2023-04-06T17:26:06;99835.47;;;8.02;37.63
19594;BME280;9944;48.240;16.478;2023-04-06T17:30:12;99836.28;;;7.97;38.00
19594;BME280;9944;48.240;16.478;2023-04-06T17:34:18;99836.25;;;7.94;37.84
19594;BME280;9944;48.240;16.478;2023-04-06T17:38:22;99844.13;;;7.93;38.00
19594;BME280;9944;48.240;16.478;2023-04-06T17:42:25;99844.13;;;7.90;37.92
19594;BME280;9944;48.240;16.478;2023-04-06T17:46:29;99850.22;;;7.87;37.85
19594;BME280;9944;48.240;16.478;2023-04-06T17:50:36;99853.69;;;7.80;38.03
19594;BME280;9944;48.240;16.478;2023-04-06T17:54:39;99848.44;;;7.82;37.54
19594;BME280;9944;48.240;16.478;2023-04-06T17:58:42;99853.66;;;7.78;37.60
19594;BME280;9944;48.240;16.478;2023-04-06T18:02:47;99866.78;;;7.74;37.78
19594;BME280;9944;48.240;16.478;2023-04-06T18:06:50;99865.84;;;7.72;38.39
19594;BME280;9944;48.240;16.478;2023-04-06T18:10:54;99860.59;;;7.69;38.01
19594;BME280;9944;48.240;16.478;2023-04-06T18:14:57;99865.81;;;7.64;38.20
19594;BME280;9944;48.240;16.478;2023-04-06T18:19:02;99866.66;;;7.60;38.42
19594;BME280;9944;48.240;16.478;2023-04-06T18:23:05;99863.09;;;7.58;38.30
19594;BME280;9944;48.240;16.478;2023-04-06T18:27:08;99866.56;;;7.54;38.75
19594;BME280;9944;48.240;16.478;2023-04-06T18:31:11;99880.56;;;7.50;38.81
19594;BME280;9944;48.240;16.478;2023-04-06T18:35:16;99873.50;;;7.46;38.67
19594;BME280;9944;48.240;16.478;2023-04-06T18:39:19;99885.72;;;7.43;39.47
19594;BME280;9944;48.240;16.478;2023-04-06T18:43:22;99883.97;;;7.39;39.05
19594;BME280;9944;48.240;16.478;2023-04-06T18:47:26;99890.00;;;7.32;39.49
19594;BME280;9944;48.240;16.478;2023-04-06T18:51:30;99881.22;;;7.30;39.81
19594;BME280;9944;48.240;16.478;2023-04-06T18:55:34;99891.69;;;7.29;39.38
19594;BME280;9944;48.240;16.478;2023-04-06T18:59:37;99893.44;;;7.27;39.60
19594;BME280;9944;48.240;16.478;2023-04-06T19:03:40;99899.50;;;7.21;39.67
19594;BME280;9944;48.240;16.478;2023-04-06T19:07:45;99902.03;;;7.15;39.72
19594;BME280;9944;48.240;16.478;2023-04-06T19:11:53;99894.16;;;7.12;39.83
19594;BME280;9944;48.240;16.478;2023-04-06T19:15:56;99897.63;;;7.11;40.11
19594;BME280;9944;48.240;16.478;2023-04-06T19:19:59;99895.88;;;7.10;40.21
19594;BME280;9944;48.240;16.478;2023-04-06T19:24:05;99894.06;;;7.05;40.22
19594;BME280;9944;48.240;16.478;2023-04-06T19:28:08;99894.00;;;7.02;40.62
19594;BME280;9944;48.240;16.478;2023-04-06T19:32:13;99893.13;;;7.00;40.64
19594;BME280;9944;48.240;16.478;2023-04-06T19:36:17;99899.25;;;6.99;40.78
19594;BME280;9944;48.240;16.478;2023-04-06T19:40:21;99905.38;;;7.00;40.81
19594;BME280;9944;48.240;16.478;2023-04-06T19:44:24;99901.84;;;6.98;40.58
19594;BME280;9944;48.240;16.478;2023-04-06T19:48:28;99898.28;;;6.93;40.58
19594;BME280;9944;48.240;16.478;2023-04-06T19:52:31;99893.00;;;6.90;40.80
19594;BME280;9944;48.240;16.478;2023-04-06T19:56:35;99900.78;;;6.85;41.04
19594;BME280;9944;48.240;16.478;2023-04-06T20:00:40;99893.78;;;6.82;40.96
19594;BME280;9944;48.240;16.478;2023-04-06T20:04:43;99885.00;;;6.80;41.27
19594;BME280;9944;48.240;16.478;2023-04-06T20:08:47;99891.09;;;6.79;41.13
19594;BME280;9944;48.240;16.478;2023-04-06T20:12:51;99894.59;;;6.78;41.08
19594;BME280;9944;48.240;16.478;2023-04-06T20:16:54;99895.44;;;6.76;41.12
19594;BME280;9944;48.240;16.478;2023-04-06T20:20:57;99897.16;;;6.74;40.87
19594;BME280;9944;48.240;16.478;2023-04-06T20:25:01;99892.72;;;6.70;40.95
19594;BME280;9944;48.240;16.478;2023-04-06T20:29:05;99899.72;;;6.69;41.34
19594;BME280;9944;48.240;16.478;2023-04-06T20:33:08;99901.44;;;6.67;41.73
19594;BME280;9944;48.240;16.478;2023-04-06T20:37:12;99895.31;;;6.66;42.25
19594;BME280;9944;48.240;16.478;2023-04-06T20:41:15;99900.53;;;6.63;42.32
19594;BME280;9944;48.240;16.478;2023-04-06T20:45:19;99894.34;;;6.60;41.98
19594;BME280;9944;48.240;16.478;2023-04-06T20:49:22;99891.66;;;6.55;42.21
19594;BME280;9944;48.240;16.478;2023-04-06T20:53:26;99893.44;;;6.56;42.20
19594;BME280;9944;48.240;16.478;2023-04-06T20:57:29;99886.41;;;6.55;42.35
19594;BME280;9944;48.240;16.478;2023-04-06T21:01:34;99891.59;;;6.52;42.26
19594;BME280;9944;48.240;16.478;2023-04-06T21:05:37;99884.56;;;6.48;42.44
19594;BME280;9944;48.240;16.478;2023-04-06T21:09:41;99888.03;;;6.47;42.63
19594;BME280;9944;48.240;16.478;2023-04-06T21:13:44;99889.75;;;6.45;42.88
19594;BME280;9944;48.240;16.478;2023-04-06T21:17:48;99881.00;;;6.43;43.11
19594;BME280;9944;48.240;16.478;2023-04-06T21:21:51;99890.53;;;6.39;43.45
19594;BME280;9944;48.240;16.478;2023-04-06T21:25:54;99886.13;;;6.37;43.77
19594;BME280;9944;48.240;16.478;2023-04-06T21:29:58;99891.38;;;6.37;43.54
19594;BME280;9944;48.240;16.478;2023-04-06T21:34:07;99890.44;;;6.35;43.55
19594;BME280;9944;48.240;16.478;2023-04-06T21:38:10;99886.97;;;6.36;43.65
19594;BME280;9944;48.240;16.478;2023-04-06T21:42:13;99886.09;;;6.34;43.51
19594;BME280;9944;48.240;16.478;2023-04-06T21:46:16;99877.31;;;6.32;43.78